sensor_id;sensor_type;location;lat;lon;timestamp;pressure;altitude;pressure_sealevel;temperature;humidity
59409;BME280;45213;32.654;-115.458;2023-04-08T00:01:25;101147.69;;;29.17;11.49
59409;BME280;45213;32.654;-115.458;2023-04-08T00:03:51;101145.84;;;29.18;11.68
59409;BME280;45213;32.654;-115.458;2023-04-08T00:06:18;101141.69;;;28.98;12.41
59409;BME280;45213;32.654;-115.458;2023-04-08T00:08:45;101147.06;;;28.98;11.55
59409;BME280;45213;32.654;-115.458;2023-04-08T00:11:12;101148.03;;;28.97;12.22
59409;BME280;45213;32.654;-115.458;2023-04-08T00:13:39;101141.50;;;28.86;11.78
59409;BME280;45213;32.654;-115.458;2023-04-08T00:16:05;101141.50;;;28.86;11.99
59409;BME280;45213;32.654;-115.458;2023-04-08T00:18:32;101138.84;;;28.72;11.65
59409;BME280;45213;32.654;-115.458;2023-04-08T00:20:59;101143.72;;;28.65;11.49
59409;BME280;45213;32.654;-115.458;2023-04-08T00:23:26;101138.91;;;28.56;12.16
59409;BME280;45213;32.654;-115.458;2023-04-08T00:25:52;101145.69;;;28.47;12.38
59409;BME280;45213;32.654;-115.458;2023-04-08T00:28:19;101143.91;;;28.32;12.59
59409;BME280;45213;32.654;-115.458;2023-04-08T00:30:46;101142.72;;;28.22;11.64
59409;BME280;45213;32.654;-115.458;2023-04-08T00:33:12;101143.56;;;28.08;11.80
59409;BME280;45213;32.654;-115.458;2023-04-08T00:35:39;101139.28;;;27.89;11.97
59409;BME280;45213;32.654;-115.458;2023-04-08T00:38:06;101139.84;;;27.79;12.61
59409;BME280;45213;32.654;-115.458;2023-04-08T00:40:33;101138.56;;;27.86;12.22
59409;BME280;45213;32.654;-115.458;2023-04-08T00:43:00;101141.59;;;27.80;12.32
59409;BME280;45213;32.654;-115.458;2023-04-08T00:45:27;101138.56;;;27.70;12.53
59409;BME280;45213;32.654;-115.458;2023-04-08T00:47:53;101143.25;;;27.66;12.31
59409;BME280;45213;32.654;-115.458;2023-04-08T00:50:21;101141.19;;;27.56;12.45
59409;BME280;45213;32.654;-115.458;2023-04-08T00:52:48;101149.66;;;27.48;12.17
59409;BME280;45213;32.654;-115.458;2023-04-08T00:55:15;101142.47;;;27.33;13.02
59409;BME280;45213;32.654;-115.458;2023-04-08T00:57:41;101144.38;;;27.31;13.09
59409;BME280;45213;32.654;-115.458;2023-04-08T01:00:09;101148.06;;;27.28;13.14
59409;BME280;45213;32.654;-115.458;2023-04-08T01:02:52;101138.09;;;27.14;12.75
59409;BME280;45213;32.654;-115.458;2023-04-08T01:05:49;101151.63;;;27.11;12.75
59409;BME280;45213;32.654;-115.458;2023-04-08T01:08:19;101149.13;;;27.08;12.94
59409;BME280;45213;32.654;-115.458;2023-04-08T01:10:50;101154.19;;;26.97;13.21
59409;BME280;45213;32.654;-115.458;2023-04-08T01:13:21;101141.94;;;26.93;13.53
59409;BME280;45213;32.654;-115.458;2023-04-08T01:15:49;101149.34;;;26.87;13.25
59409;BME280;45213;32.654;-115.458;2023-04-08T01:18:16;101150.50;;;26.82;13.61
59409;BME280;45213;32.654;-115.458;2023-04-08T01:20:44;101155.50;;;26.72;13.52
59409;BME280;45213;32.654;-115.458;2023-04-08T01:25:56;101150.94;;;26.57;13.34
59409;BME280;45213;32.654;-115.458;2023-04-08T01:28:27;101153.75;;;26.54;13.55
59409;BME280;45213;32.654;-115.458;2023-04-08T01:30:55;101157.06;;;26.41;14.25
59409;BME280;45213;32.654;-115.458;2023-04-08T01:33:23;101159.25;;;26.33;13.67
59409;BME280;45213;32.654;-115.458;2023-04-08T01:35:55;101147.47;;;26.20;13.71
59409;BME280;45213;32.654;-115.458;2023-04-08T01:38:24;101150.31;;;26.17;14.03
59409;BME280;45213;32.654;-115.458;2023-04-08T01:40:53;101152.66;;;26.06;13.69
59409;BME280;45213;32.654;-115.458;2023-04-08T01:43:22;101155.78;;;25.96;13.93
59409;BME280;45213;32.654;-115.458;2023-04-08T01:45:50;101150.56;;;25.93;13.87
59409;BME280;45213;32.654;-115.458;2023-04-08T01:48:23;101152.47;;;25.91;13.93
59409;BME280;45213;32.654;-115.458;2023-04-08T01:50:51;101154.63;;;25.83;14.29
59409;BME280;45213;32.654;-115.458;2023-04-08T01:53:18;101157.56;;;25.77;14.33
59409;BME280;45213;32.654;-115.458;2023-04-08T01:55:45;101150.03;;;25.68;14.54
59409;BME280;45213;32.654;-115.458;2023-04-08T01:58:19;101154.72;;;25.62;14.38
59409;BME280;45213;32.654;-115.458;2023-04-08T02:00:47;101158.75;;;25.52;14.50
59409;BME280;45213;32.654;-115.458;2023-04-08T02:03:17;101155.66;;;25.42;14.27
59409;BME280;45213;32.654;-115.458;2023-04-08T02:05:45;101155.94;;;25.36;14.33
59409;BME280;45213;32.654;-115.458;2023-04-08T02:08:12;101160.63;;;25.31;14.35
59409;BME280;45213;32.654;-115.458;2023-04-08T02:10:39;101157.97;;;25.31;14.86
59409;BME280;45213;32.654;-115.458;2023-04-08T02:13:06;101166.56;;;25.19;15.14
59409;BME280;45213;32.654;-115.458;2023-04-08T02:15:35;101168.06;;;25.04;15.67
59409;BME280;45213;32.654;-115.458;2023-04-08T02:18:10;101166.88;;;24.91;14.82
59409;BME280;45213;32.654;-115.458;2023-04-08T02:20:43;101169.25;;;24.78;15.37
59409;BME280;45213;32.654;-115.458;2023-04-08T02:23:20;101165.78;;;24.55;15.90
59409;BME280;45213;32.654;-115.458;2023-04-08T02:25:49;101172.25;;;24.50;15.49
59409;BME280;45213;32.654;-115.458;2023-04-08T02:28:17;101173.78;;;24.33;15.34
59409;BME280;45213;32.654;-115.458;2023-04-08T02:30:50;101175.91;;;24.25;15.97
59409;BME280;45213;32.654;-115.458;2023-04-08T02:33:20;101183.34;;;24.17;15.98
59409;BME280;45213;32.654;-115.458;2023-04-08T02:35:50;101178.28;;;24.11;16.53
59409;BME280;45213;32.654;-115.458;2023-04-08T02:38:20;101181.50;;;23.97;17.09
59409;BME280;45213;32.654;-115.458;2023-04-08T02:40:49;101192.88;;;23.79;16.16
59409;BME280;45213;32.654;-115.458;2023-04-08T02:43:16;101198.94;;;23.82;16.53
59409;BME280;45213;32.654;-115.458;2023-04-08T02:45:43;101196.97;;;23.87;16.44
59409;BME280;45213;32.654;-115.458;2023-04-08T02:48:11;101199.81;;;24.05;16.39
59409;BME280;45213;32.654;-115.458;2023-04-08T02:50:37;101200.56;;;24.08;16.02
59409;BME280;45213;32.654;-115.458;2023-04-08T02:53:06;101204.22;;;24.06;16.85
59409;BME280;45213;32.654;-115.458;2023-04-08T02:55:33;101204.69;;;24.15;17.75
59409;BME280;45213;32.654;-115.458;2023-04-08T02:58:00;101209.59;;;24.26;18.12
59409;BME280;45213;32.654;-115.458;2023-04-08T03:00:27;101210.38;;;24.28;18.25
59409;BME280;45213;32.654;-115.458;2023-04-08T03:02:53;101218.19;;;24.33;18.39
59409;BME280;45213;32.654;-115.458;2023-04-08T03:05:20;101203.41;;;24.26;18.57
59409;BME280;45213;32.654;-115.458;2023-04-08T03:07:46;101218.63;;;24.22;18.88
59409;BME280;45213;32.654;-115.458;2023-04-08T03:10:13;101218.00;;;24.15;18.92
59409;BME280;45213;32.654;-115.458;2023-04-08T03:12:40;101223.38;;;24.14;19.16
59409;BME280;45213;32.654;-115.458;2023-04-08T03:15:07;101229.78;;;24.10;19.35
59409;BME280;45213;32.654;-115.458;2023-04-08T03:17:33;101239.88;;;24.00;19.38
59409;BME280;45213;32.654;-115.458;2023-04-08T03:20:01;101241.16;;;23.91;19.67
59409;BME280;45213;32.654;-115.458;2023-04-08T03:22:29;101244.03;;;23.85;19.82
59409;BME280;45213;32.654;-115.458;2023-04-08T03:24:56;101240.81;;;23.77;19.76
59409;BME280;45213;32.654;-115.458;2023-04-08T03:27:23;101239.28;;;23.70;20.02
59409;BME280;45213;32.654;-115.458;2023-04-08T03:29:49;101239.22;;;23.71;20.29
59409;BME280;45213;32.654;-115.458;2023-04-08T03:32:18;101245.63;;;23.66;20.32
59409;BME280;45213;32.654;-115.458;2023-04-08T03:34:44;101246.34;;;23.71;19.76
59409;BME280;45213;32.654;-115.458;2023-04-08T03:37:11;101254.00;;;23.80;19.74
59409;BME280;45213;32.654;-115.458;2023-04-08T03:39:38;101262.03;;;23.79;19.40
59409;BME280;45213;32.654;-115.458;2023-04-08T03:42:04;101254.09;;;23.77;20.09
59409;BME280;45213;32.654;-115.458;2023-04-08T03:44:31;101255.34;;;23.67;20.18
59409;BME280;45213;32.654;-115.458;2023-04-08T03:46:57;101262.09;;;23.52;20.13
59409;BME280;45213;32.654;-115.458;2023-04-08T03:49:24;101270.81;;;23.32;20.28
59409;BME280;45213;32.654;-115.458;2023-04-08T03:51:51;101270.25;;;23.24;20.70
59409;BME280;45213;32.654;-115.458;2023-04-08T03:54:17;101271.47;;;23.13;20.97
59409;BME280;45213;32.654;-115.458;2023-04-08T03:56:44;101269.16;;;23.04;20.97
59409;BME280;45213;32.654;-115.458;2023-04-08T03:59:10;101282.72;;;22.95;21.93
59409;BME280;45213;32.654;-115.458;2023-04-08T04:01:37;101284.06;;;22.82;22.34
59409;BME280;45213;32.654;-115.458;2023-04-08T04:04:03;101284.38;;;22.72;22.61
59409;BME280;45213;32.654;-115.458;2023-04-08T04:06:30;101289.00;;;22.66;22.17
59409;BME280;45213;32.654;-115.458;2023-04-08T04:08:57;101289.44;;;22.54;22.51
59409;BME280;45213;32.654;-115.458;2023-04-08T04:11:23;101291.56;;;22.42;22.73
59409;BME280;45213;32.654;-115.458;2023-04-08T04:13:51;101293.53;;;22.36;23.18
59409;BME280;45213;32.654;-115.458;2023-04-08T04:16:17;101304.44;;;22.26;23.50
59409;BME280;45213;32.654;-115.458;2023-04-08T04:18:44;101302.13;;;22.14;23.07
59409;BME280;45213;32.654;-115.458;2023-04-08T04:21:11;101304.16;;;22.06;23.21
59409;BME280;45213;32.654;-115.458;2023-04-08T04:23:37;101300.13;;;21.94;23.51
59409;BME280;45213;32.654;-115.458;2023-04-08T04:26:08;101306.44;;;21.88;23.87
59409;BME280;45213;32.654;-115.458;2023-04-08T04:28:35;101322.34;;;21.88;23.76
59409;BME280;45213;32.654;-115.458;2023-04-08T04:31:01;101317.78;;;21.94;23.92
59409;BME280;45213;32.654;-115.458;2023-04-08T04:33:28;101319.66;;;21.90;23.95
59409;BME280;45213;32.654;-115.458;2023-04-08T04:35:55;101320.66;;;21.86;24.49
59409;BME280;45213;32.654;-115.458;2023-04-08T04:38:22;101321.88;;;21.76;24.67
59409;BME280;45213;32.654;-115.458;2023-04-08T04:40:48;101327.59;;;21.60;24.53
59409;BME280;45213;32.654;-115.458;2023-04-08T04:43:15;101327.75;;;21.54;24.50
59409;BME280;45213;32.654;-115.458;2023-04-08T04:45:42;101329.72;;;21.47;24.42
59409;BME280;45213;32.654;-115.458;2023-04-08T04:48:10;101334.19;;;21.45;24.74
59409;BME280;45213;32.654;-115.458;2023-04-08T04:50:36;101332.28;;;21.51;24.17
59409;BME280;45213;32.654;-115.458;2023-04-08T04:53:03;101333.44;;;21.39;24.45
59409;BME280;45213;32.654;-115.458;2023-04-08T04:55:29;101331.75;;;21.36;24.30
59409;BME280;45213;32.654;-115.458;2023-04-08T04:57:56;101333.44;;;21.39;22.95
59409;BME280;45213;32.654;-115.458;2023-04-08T05:00:23;101337.41;;;21.57;21.80
59409;BME280;45213;32.654;-115.458;2023-04-08T05:02:49;101336.16;;;21.70;20.60
59409;BME280;45213;32.654;-115.458;2023-04-08T05:05:16;101339.41;;;21.80;20.54
59409;BME280;45213;32.654;-115.458;2023-04-08T05:07:43;101326.47;;;21.69;20.27
59409;BME280;45213;32.654;-115.458;2023-04-08T05:10:09;101344.97;;;21.71;20.97
59409;BME280;45213;32.654;-115.458;2023-04-08T05:12:36;101340.75;;;21.63;21.99
59409;BME280;45213;32.654;-115.458;2023-04-08T05:15:03;101341.03;;;21.53;20.80
59409;BME280;45213;32.654;-115.458;2023-04-08T05:17:31;101344.88;;;21.42;20.77
59409;BME280;45213;32.654;-115.458;2023-04-08T05:19:58;101342.41;;;21.35;21.36
59409;BME280;45213;32.654;-115.458;2023-04-08T05:22:24;101341.72;;;21.26;21.32
59409;BME280;45213;32.654;-115.458;2023-04-08T05:24:51;101346.09;;;21.27;20.89
59409;BME280;45213;32.654;-115.458;2023-04-08T05:27:17;101339.94;;;21.27;21.60
59409;BME280;45213;32.654;-115.458;2023-04-08T05:29:44;101338.38;;;21.20;20.94
59409;BME280;45213;32.654;-115.458;2023-04-08T05:32:11;101335.38;;;21.32;19.81
59409;BME280;45213;32.654;-115.458;2023-04-08T05:34:38;101339.69;;;21.36;20.54
59409;BME280;45213;32.654;-115.458;2023-04-08T05:37:04;101338.81;;;21.37;20.29
59409;BME280;45213;32.654;-115.458;2023-04-08T05:39:31;101342.28;;;21.39;19.52
59409;BME280;45213;32.654;-115.458;2023-04-08T05:41:58;101344.94;;;21.39;20.25
59409;BME280;45213;32.654;-115.458;2023-04-08T05:44:24;101337.28;;;21.28;21.05
59409;BME280;45213;32.654;-115.458;2023-04-08T05:46:51;101340.19;;;21.18;21.28
59409;BME280;45213;32.654;-115.458;2023-04-08T05:49:18;101346.66;;;21.08;21.19
59409;BME280;45213;32.654;-115.458;2023-04-08T05:51:44;101337.03;;;21.03;22.32
59409;BME280;45213;32.654;-115.458;2023-04-08T05:54:11;101336.63;;;20.84;21.34
59409;BME280;45213;32.654;-115.458;2023-04-08T05:56:38;101339.59;;;20.71;21.69
59409;BME280;45213;32.654;-115.458;2023-04-08T05:59:04;101330.91;;;20.67;22.22
59409;BME280;45213;32.654;-115.458;2023-04-08T06:01:31;101323.25;;;20.53;23.18
59409;BME280;45213;32.654;-115.458;2023-04-08T06:03:57;101333.94;;;20.49;22.73
59409;BME280;45213;32.654;-115.458;2023-04-08T06:06:24;101333.22;;;20.42;22.49
59409;BME280;45213;32.654;-115.458;2023-04-08T06:08:51;101334.84;;;20.46;24.07
59409;BME280;45213;32.654;-115.458;2023-04-08T06:11:17;101329.00;;;20.33;23.67
59409;BME280;45213;32.654;-115.458;2023-04-08T06:13:44;101330.72;;;20.34;24.15
59409;BME280;45213;32.654;-115.458;2023-04-08T06:16:15;101338.88;;;20.25;24.04
59409;BME280;45213;32.654;-115.458;2023-04-08T06:18:44;101338.00;;;20.26;24.20
59409;BME280;45213;32.654;-115.458;2023-04-08T06:21:11;101340.78;;;20.18;23.88
59409;BME280;45213;32.654;-115.458;2023-04-08T06:23:37;101339.91;;;20.18;23.67
59409;BME280;45213;32.654;-115.458;2023-04-08T06:26:04;101338.41;;;20.08;23.57
59409;BME280;45213;32.654;-115.458;2023-04-08T06:28:31;101334.09;;;20.02;23.68
59409;BME280;45213;32.654;-115.458;2023-04-08T06:30:58;101346.44;;;20.03;24.24
59409;BME280;45213;32.654;-115.458;2023-04-08T06:33:25;101339.50;;;19.96;24.73
59409;BME280;45213;32.654;-115.458;2023-04-08T06:36:00;101339.56;;;19.93;24.59
59409;BME280;45213;32.654;-115.458;2023-04-08T06:38:28;101338.84;;;19.85;25.83
59409;BME280;45213;32.654;-115.458;2023-04-08T06:40:54;101340.81;;;19.76;24.49
59409;BME280;45213;32.654;-115.458;2023-04-08T06:43:21;101340.91;;;19.70;25.20
59409;BME280;45213;32.654;-115.458;2023-04-08T06:45:48;101339.19;;;19.66;25.38
59409;BME280;45213;32.654;-115.458;2023-04-08T06:48:15;101342.03;;;19.57;25.18
59409;BME280;45213;32.654;-115.458;2023-04-08T06:50:42;101341.25;;;19.52;25.29
59409;BME280;45213;32.654;-115.458;2023-04-08T06:53:09;101343.81;;;19.55;25.10
59409;BME280;45213;32.654;-115.458;2023-04-08T06:55:36;101348.06;;;19.64;25.53
59409;BME280;45213;32.654;-115.458;2023-04-08T06:58:02;101349.09;;;19.55;26.73
59409;BME280;45213;32.654;-115.458;2023-04-08T07:00:29;101351.91;;;19.46;26.78
59409;BME280;45213;32.654;-115.458;2023-04-08T07:02:55;101355.47;;;19.45;26.42
59409;BME280;45213;32.654;-115.458;2023-04-08T07:05:22;101352.94;;;19.38;26.29
59409;BME280;45213;32.654;-115.458;2023-04-08T07:07:48;101360.19;;;19.27;26.06
59409;BME280;45213;32.654;-115.458;2023-04-08T07:10:15;101359.25;;;19.30;25.49
59409;BME280;45213;32.654;-115.458;2023-04-08T07:12:42;101350.44;;;19.31;26.13
59409;BME280;45213;32.654;-115.458;2023-04-08T07:15:09;101352.34;;;19.23;26.46
59409;BME280;45213;32.654;-115.458;2023-04-08T07:17:35;101359.38;;;19.24;26.59
59409;BME280;45213;32.654;-115.458;2023-04-08T07:20:02;101366.41;;;19.23;25.66
59409;BME280;45213;32.654;-115.458;2023-04-08T07:22:29;101368.13;;;19.26;25.14
59409;BME280;45213;32.654;-115.458;2023-04-08T07:24:56;101365.47;;;19.27;24.60
59409;BME280;45213;32.654;-115.458;2023-04-08T07:27:22;101359.06;;;19.40;24.07
59409;BME280;45213;32.654;-115.458;2023-04-08T07:29:52;101365.09;;;19.49;24.51
59409;BME280;45213;32.654;-115.458;2023-04-08T07:32:20;101361.63;;;19.44;24.61
59409;BME280;45213;32.654;-115.458;2023-04-08T07:34:46;101369.72;;;19.36;24.70
59409;BME280;45213;32.654;-115.458;2023-04-08T07:37:13;101365.28;;;19.36;25.44
59409;BME280;45213;32.654;-115.458;2023-04-08T07:39:40;101359.38;;;19.24;25.28
59409;BME280;45213;32.654;-115.458;2023-04-08T07:42:07;101362.03;;;19.22;25.30
59409;BME280;45213;32.654;-115.458;2023-04-08T07:44:33;101360.25;;;19.24;25.27
59409;BME280;45213;32.654;-115.458;2023-04-08T07:47:00;101355.91;;;19.22;24.90
59409;BME280;45213;32.654;-115.458;2023-04-08T07:49:26;101353.34;;;19.15;25.96
59409;BME280;45213;32.654;-115.458;2023-04-08T07:51:53;101358.72;;;19.11;25.56
59409;BME280;45213;32.654;-115.458;2023-04-08T07:54:20;101348.25;;;19.05;25.72
59409;BME280;45213;32.654;-115.458;2023-04-08T07:56:47;101351.69;;;19.10;25.67
59409;BME280;45213;32.654;-115.458;2023-04-08T07:59:13;101354.31;;;19.11;25.58
59409;BME280;45213;32.654;-115.458;2023-04-08T08:01:40;101355.22;;;19.09;26.26
59409;BME280;45213;32.654;-115.458;2023-04-08T08:04:06;101359.97;;;18.90;26.52
59409;BME280;45213;32.654;-115.458;2023-04-08T08:06:33;101360.16;;;18.76;27.40
59409;BME280;45213;32.654;-115.458;2023-04-08T08:09:00;101355.84;;;18.69;27.26
59409;BME280;45213;32.654;-115.458;2023-04-08T08:11:26;101354.19;;;18.62;26.98
59409;BME280;45213;32.654;-115.458;2023-04-08T08:13:53;101348.91;;;18.65;26.63
59409;BME280;45213;32.654;-115.458;2023-04-08T08:16:20;101354.06;;;18.71;26.79
59409;BME280;45213;32.654;-115.458;2023-04-08T08:18:46;101352.31;;;18.70;26.36
59409;BME280;45213;32.654;-115.458;2023-04-08T08:21:13;101349.59;;;18.74;26.49
59409;BME280;45213;32.654;-115.458;2023-04-08T08:23:40;101340.00;;;18.69;26.71
59409;BME280;45213;32.654;-115.458;2023-04-08T08:26:08;101341.00;;;18.63;27.28
59409;BME280;45213;32.654;-115.458;2023-04-08T08:28:35;101333.22;;;18.55;27.33
59409;BME280;45213;32.654;-115.458;2023-04-08T08:31:02;101328.75;;;18.59;27.52
59409;BME280;45213;32.654;-115.458;2023-04-08T08:33:31;101320.13;;;18.48;27.54
59409;BME280;45213;32.654;-115.458;2023-04-08T08:35:58;101324.66;;;18.38;27.83
59409;BME280;45213;32.654;-115.458;2023-04-08T08:38:25;101325.63;;;18.32;28.33
59409;BME280;45213;32.654;-115.458;2023-04-08T08:40:56;101330.16;;;18.23;29.28
59409;BME280;45213;32.654;-115.458;2023-04-08T08:43:23;101329.44;;;18.11;28.20
59409;BME280;45213;32.654;-115.458;2023-04-08T08:45:51;101332.06;;;18.11;27.68
59409;BME280;45213;32.654;-115.458;2023-04-08T08:48:17;101324.16;;;18.11;27.91
59409;BME280;45213;32.654;-115.458;2023-04-08T08:50:44;101335.47;;;18.20;27.42
59409;BME280;45213;32.654;-115.458;2023-04-08T08:53:11;101325.66;;;18.29;28.04
59409;BME280;45213;32.654;-115.458;2023-04-08T08:55:38;101317.78;;;18.28;27.48
59409;BME280;45213;32.654;-115.458;2023-04-08T08:58:05;101325.53;;;18.37;26.62
59409;BME280;45213;32.654;-115.458;2023-04-08T09:00:39;101326.31;;;18.44;26.66
59409;BME280;45213;32.654;-115.458;2023-04-08T09:03:17;101323.75;;;18.39;26.81
59409;BME280;45213;32.654;-115.458;2023-04-08T09:05:55;101313.28;;;18.34;26.55
59409;BME280;45213;32.654;-115.458;2023-04-08T09:08:33;101320.22;;;18.42;26.64
59409;BME280;45213;32.654;-115.458;2023-04-08T09:11:17;101316.69;;;18.41;25.60
59409;BME280;45213;32.654;-115.458;2023-04-08T09:13:45;101318.41;;;18.47;25.96
59409;BME280;45213;32.654;-115.458;2023-04-08T09:16:14;101313.97;;;18.47;25.36
59409;BME280;45213;32.654;-115.458;2023-04-08T09:18:44;101309.50;;;18.52;25.98
59409;BME280;45213;32.654;-115.458;2023-04-08T09:21:13;101314.13;;;18.38;25.87
59409;BME280;45213;32.654;-115.458;2023-04-08T09:23:48;101312.47;;;18.31;25.98
59409;BME280;45213;32.654;-115.458;2023-04-08T09:26:16;101306.41;;;18.24;26.14
59409;BME280;45213;32.654;-115.458;2023-04-08T09:28:55;101308.94;;;18.32;25.74
59409;BME280;45213;32.654;-115.458;2023-04-08T09:31:27;101312.41;;;18.35;26.05
59409;BME280;45213;32.654;-115.458;2023-04-08T09:33:56;101309.78;;;18.35;25.75
59409;BME280;45213;32.654;-115.458;2023-04-08T09:36:23;101305.38;;;18.36;26.60
59409;BME280;45213;32.654;-115.458;2023-04-08T09:38:53;101315.91;;;18.38;26.12
59409;BME280;45213;32.654;-115.458;2023-04-08T09:41:20;101319.31;;;18.43;25.95
59409;BME280;45213;32.654;-115.458;2023-04-08T09:43:53;101327.25;;;18.43;26.53
59409;BME280;45213;32.654;-115.458;2023-04-08T09:49:37;101315.41;;;18.09;26.75
59409;BME280;45213;32.654;-115.458;2023-04-08T09:54:53;101320.00;;;17.93;28.52
59409;BME280;45213;32.654;-115.458;2023-04-08T09:57:32;101321.84;;;17.87;28.59
59409;BME280;45213;32.654;-115.458;2023-04-08T10:02:54;101326.38;;;17.71;29.23
59409;BME280;45213;32.654;-115.458;2023-04-08T10:05:24;101323.00;;;17.60;28.41
59409;BME280;45213;32.654;-115.458;2023-04-08T10:07:51;101316.16;;;17.45;28.34
59409;BME280;45213;32.654;-115.458;2023-04-08T10:10:18;101307.47;;;17.37;28.55
59409;BME280;45213;32.654;-115.458;2023-04-08T10:12:46;101309.28;;;17.31;28.52
59409;BME280;45213;32.654;-115.458;2023-04-08T10:15:32;101307.53;;;17.32;28.72
59409;BME280;45213;32.654;-115.458;2023-04-08T10:23:12;101303.97;;;17.38;28.63
59409;BME280;45213;32.654;-115.458;2023-04-08T10:25:43;101305.69;;;17.37;30.15
59409;BME280;45213;32.654;-115.458;2023-04-08T10:28:23;101302.25;;;17.32;29.91
59409;BME280;45213;32.654;-115.458;2023-04-08T10:30:51;101294.47;;;17.23;29.41
59409;BME280;45213;32.654;-115.458;2023-04-08T10:38:23;101283.97;;;17.18;30.20
59409;BME280;45213;32.654;-115.458;2023-04-08T10:40:50;101291.88;;;17.17;30.44
59409;BME280;45213;32.654;-115.458;2023-04-08T10:43:17;101291.91;;;17.15;31.20
59409;BME280;45213;32.654;-115.458;2023-04-08T10:45:44;101288.47;;;17.10;31.33
59409;BME280;45213;32.654;-115.458;2023-04-08T10:48:24;101281.53;;;17.00;31.45
59409;BME280;45213;32.654;-115.458;2023-04-08T10:50:56;101283.41;;;16.87;31.03
59409;BME280;45213;32.654;-115.458;2023-04-08T10:55:54;101288.66;;;16.90;30.39
59409;BME280;45213;32.654;-115.458;2023-04-08T10:58:29;101275.53;;;16.85;31.67
59409;BME280;45213;32.654;-115.458;2023-04-08T11:01:02;101284.34;;;16.81;32.28
59409;BME280;45213;32.654;-115.458;2023-04-08T11:03:34;101284.34;;;16.80;31.99
59409;BME280;45213;32.654;-115.458;2023-04-08T11:06:01;101292.25;;;16.78;31.77
59409;BME280;45213;32.654;-115.458;2023-04-08T11:08:31;101284.38;;;16.72;32.91
59409;BME280;45213;32.654;-115.458;2023-04-08T11:10:59;101285.34;;;16.63;32.47
59409;BME280;45213;32.654;-115.458;2023-04-08T11:13:27;101280.16;;;16.53;32.76
59409;BME280;45213;32.654;-115.458;2023-04-08T11:15:55;101283.66;;;16.53;32.29
59409;BME280;45213;32.654;-115.458;2023-04-08T11:18:24;101281.00;;;16.53;32.64
59409;BME280;45213;32.654;-115.458;2023-04-08T11:20:52;101277.59;;;16.46;32.85
59409;BME280;45213;32.654;-115.458;2023-04-08T11:23:19;101278.50;;;16.41;32.51
59409;BME280;45213;32.654;-115.458;2023-04-08T11:25:46;101264.56;;;16.28;33.77
59409;BME280;45213;32.654;-115.458;2023-04-08T11:28:13;101279.41;;;16.32;33.10
59409;BME280;45213;32.654;-115.458;2023-04-08T11:30:40;101279.44;;;16.29;32.97
59409;BME280;45213;32.654;-115.458;2023-04-08T11:33:08;101285.63;;;16.22;34.87
59409;BME280;45213;32.654;-115.458;2023-04-08T11:35:42;101281.22;;;16.28;33.04
59409;BME280;45213;32.654;-115.458;2023-04-08T11:38:10;101282.13;;;16.26;33.16
59409;BME280;45213;32.654;-115.458;2023-04-08T11:40:37;101275.94;;;16.30;32.43
59409;BME280;45213;32.654;-115.458;2023-04-08T11:43:10;101283.84;;;16.28;33.02
59409;BME280;45213;32.654;-115.458;2023-04-08T11:45:38;101285.63;;;16.22;33.93
59409;BME280;45213;32.654;-115.458;2023-04-08T11:48:12;101281.34;;;16.05;32.39
59409;BME280;45213;32.654;-115.458;2023-04-08T11:50:40;101290.09;;;16.11;33.33
59409;BME280;45213;32.654;-115.458;2023-04-08T11:53:20;101290.94;;;16.11;32.90
59409;BME280;45213;32.654;-115.458;2023-04-08T11:55:47;101284.81;;;16.07;35.07
59409;BME280;45213;32.654;-115.458;2023-04-08T11:58:14;101297.97;;;16.07;33.42
59409;BME280;45213;32.654;-115.458;2023-04-08T12:00:42;101298.00;;;16.04;34.00
59409;BME280;45213;32.654;-115.458;2023-04-08T12:03:09;101298.84;;;16.06;33.92
59409;BME280;45213;32.654;-115.458;2023-04-08T12:05:36;101305.03;;;15.99;34.59
59409;BME280;45213;32.654;-115.458;2023-04-08T12:08:03;101307.69;;;15.93;34.27
59409;BME280;45213;32.654;-115.458;2023-04-08T12:10:29;101297.16;;;15.95;32.83
59409;BME280;45213;32.654;-115.458;2023-04-08T12:12:56;101307.69;;;15.87;33.98
59409;BME280;45213;32.654;-115.458;2023-04-08T12:15:22;101319.09;;;15.86;32.93
59409;BME280;45213;32.654;-115.458;2023-04-08T12:17:49;101326.94;;;15.97;33.81
59409;BME280;45213;32.654;-115.458;2023-04-08T12:20:15;101326.97;;;15.92;33.57
59409;BME280;45213;32.654;-115.458;2023-04-08T12:22:42;101319.09;;;15.86;32.88
59409;BME280;45213;32.654;-115.458;2023-04-08T12:25:09;101327.03;;;15.78;33.67
59409;BME280;45213;32.654;-115.458;2023-04-08T12:27:36;101324.38;;;15.81;32.75
59409;BME280;45213;32.654;-115.458;2023-04-08T12:30:02;101332.28;;;15.74;32.84
59409;BME280;45213;32.654;-115.458;2023-04-08T12:32:29;101327.88;;;15.83;33.13
59409;BME280;45213;32.654;-115.458;2023-04-08T12:34:56;101343.56;;;15.90;32.42
59409;BME280;45213;32.654;-115.458;2023-04-08T12:37:23;101348.00;;;15.83;32.53
59409;BME280;45213;32.654;-115.458;2023-04-08T12:39:50;101344.50;;;15.84;32.47
59409;BME280;45213;32.654;-115.458;2023-04-08T12:42:16;101344.50;;;15.78;32.42
59409;BME280;45213;32.654;-115.458;2023-04-08T12:44:43;101344.53;;;15.72;33.37
59409;BME280;45213;32.654;-115.458;2023-04-08T12:47:09;101350.63;;;15.75;31.82
59409;BME280;45213;32.654;-115.458;2023-04-08T12:49:36;101351.50;;;15.66;33.58